sensor_id;sensor_type;location;lat;lon;timestamp;temperature;humidity
51863;DHT22;37900;52.996;6.278;2023-05-02T00:00:47;16.90;89.80
51863;DHT22;37900;52.996;6.278;2023-05-02T00:03:12;16.90;89.80
51863;DHT22;37900;52.996;6.278;2023-05-02T00:05:38;16.90;89.80
51863;DHT22;37900;52.996;6.278;2023-05-02T00:08:05;16.90;89.70
51863;DHT22;37900;52.996;6.278;2023-05-02T00:10:30;16.90;89.70
51863;DHT22;37900;52.996;6.278;2023-05-02T00:12:56;16.90;89.60
51863;DHT22;37900;52.996;6.278;2023-05-02T00:15:21;16.90;89.60
51863;DHT22;37900;52.996;6.278;2023-05-02T00:17:47;16.90;89.60
51863;DHT22;37900;52.996;6.278;2023-05-02T00:20:13;16.90;89.60
51863;DHT22;37900;52.996;6.278;2023-05-02T00:22:38;16.90;89.50
51863;DHT22;37900;52.996;6.278;2023-05-02T00:25:04;16.90;89.50
51863;DHT22;37900;52.996;6.278;2023-05-02T00:27:30;16.80;89.40
51863;DHT22;37900;52.996;6.278;2023-05-02T00:29:58;16.80;89.40
51863;DHT22;37900;52.996;6.278;2023-05-02T00:32:25;16.90;89.40
51863;DHT22;37900;52.996;6.278;2023-05-02T00:34:51;16.80;89.30
51863;DHT22;37900;52.996;6.278;2023-05-02T00:37:16;16.80;89.30
51863;DHT22;37900;52.996;6.278;2023-05-02T00:39:42;16.80;89.80
51863;DHT22;37900;52.996;6.278;2023-05-02T00:42:07;16.80;89.20
51863;DHT22;37900;52.996;6.278;2023-05-02T00:44:33;16.80;89.20
51863;DHT22;37900;52.996;6.278;2023-05-02T00:46:59;16.90;89.20
51863;DHT22;37900;52.996;6.278;2023-05-02T00:49:26;16.80;89.20
51863;DHT22;37900;52.996;6.278;2023-05-02T00:51:52;16.80;89.10
51863;DHT22;37900;52.996;6.278;2023-05-02T00:54:17;16.80;89.00
51863;DHT22;37900;52.996;6.278;2023-05-02T00:56:43;16.80;89.00
51863;DHT22;37900;52.996;6.278;2023-05-02T00:59:09;16.80;89.00
51863;DHT22;37900;52.996;6.278;2023-05-02T01:09:48;16.80;88.80
51863;DHT22;37900;52.996;6.278;2023-05-02T01:12:20;16.80;88.90
51863;DHT22;37900;52.996;6.278;2023-05-02T01:14:52;16.80;88.80
51863;DHT22;37900;52.996;6.278;2023-05-02T01:17:19;16.80;88.80
51863;DHT22;37900;52.996;6.278;2023-05-02T01:19:50;16.80;88.80
51863;DHT22;37900;52.996;6.278;2023-05-02T01:22:17;16.80;88.70
51863;DHT22;37900;52.996;6.278;2023-05-02T01:25:17;16.80;88.80
51863;DHT22;37900;52.996;6.278;2023-05-02T01:27:41;16.80;88.70
51863;DHT22;37900;52.996;6.278;2023-05-02T01:30:07;16.80;88.70
51863;DHT22;37900;52.996;6.278;2023-05-02T01:32:34;16.80;88.60
51863;DHT22;37900;52.996;6.278;2023-05-02T01:35:01;16.80;88.60
51863;DHT22;37900;52.996;6.278;2023-05-02T01:37:29;16.80;88.60
51863;DHT22;37900;52.996;6.278;2023-05-02T01:39:55;16.80;88.60
51863;DHT22;37900;52.996;6.278;2023-05-02T01:42:21;16.70;88.50
51863;DHT22;37900;52.996;6.278;2023-05-02T01:44:48;16.70;88.50
51863;DHT22;37900;52.996;6.278;2023-05-02T01:47:14;16.70;88.40
51863;DHT22;37900;52.996;6.278;2023-05-02T01:49:41;16.70;88.40
51863;DHT22;37900;52.996;6.278;2023-05-02T01:52:09;16.70;88.40
51863;DHT22;37900;52.996;6.278;2023-05-02T01:54:35;16.70;88.40
51863;DHT22;37900;52.996;6.278;2023-05-02T01:57:02;16.70;88.30
51863;DHT22;37900;52.996;6.278;2023-05-02T01:59:29;16.70;88.30
51863;DHT22;37900;52.996;6.278;2023-05-02T02:01:56;16.70;88.30
51863;DHT22;37900;52.996;6.278;2023-05-02T02:04:21;16.70;88.30
51863;DHT22;37900;52.996;6.278;2023-05-02T02:06:49;16.70;88.20
51863;DHT22;37900;52.996;6.278;2023-05-02T02:09:16;16.70;88.20
51863;DHT22;37900;52.996;6.278;2023-05-02T02:11:43;16.70;88.20
51863;DHT22;37900;52.996;6.278;2023-05-02T02:14:11;16.70;88.20
51863;DHT22;37900;52.996;6.278;2023-05-02T02:16:38;16.70;88.20
51863;DHT22;37900;52.996;6.278;2023-05-02T02:19:07;16.70;88.10
51863;DHT22;37900;52.996;6.278;2023-05-02T02:21:35;16.70;88.10
51863;DHT22;37900;52.996;6.278;2023-05-02T02:24:03;16.70;88.10
51863;DHT22;37900;52.996;6.278;2023-05-02T02:26:29;16.70;88.00
51863;DHT22;37900;52.996;6.278;2023-05-02T02:28:55;16.70;88.00
51863;DHT22;37900;52.996;6.278;2023-05-02T02:31:21;16.70;88.00
51863;DHT22;37900;52.996;6.278;2023-05-02T02:33:46;16.70;88.00
51863;DHT22;37900;52.996;6.278;2023-05-02T02:39:17;16.70;88.00
51863;DHT22;37900;52.996;6.278;2023-05-02T02:44:39;16.60;87.90
51863;DHT22;37900;52.996;6.278;2023-05-02T02:47:09;16.80;87.90
51863;DHT22;37900;52.996;6.278;2023-05-02T02:57:15;16.70;87.80
51863;DHT22;37900;52.996;6.278;2023-05-02T02:59:46;16.70;87.80
51863;DHT22;37900;52.996;6.278;2023-05-02T03:02:14;16.60;87.70
51863;DHT22;37900;52.996;6.278;2023-05-02T03:04:42;16.60;87.70
51863;DHT22;37900;52.996;6.278;2023-05-02T03:07:08;16.70;87.70
51863;DHT22;37900;52.996;6.278;2023-05-02T03:09:43;16.70;87.70
51863;DHT22;37900;52.996;6.278;2023-05-02T03:12:09;16.60;87.60
51863;DHT22;37900;52.996;6.278;2023-05-02T03:14:35;16.60;87.60
51863;DHT22;37900;52.996;6.278;2023-05-02T03:17:01;16.60;87.60
51863;DHT22;37900;52.996;6.278;2023-05-02T03:19:26;16.60;87.50
51863;DHT22;37900;52.996;6.278;2023-05-02T03:21:55;16.60;87.50
51863;DHT22;37900;52.996;6.278;2023-05-02T03:24:21;16.60;87.50
51863;DHT22;37900;52.996;6.278;2023-05-02T03:26:47;16.60;87.50
51863;DHT22;37900;52.996;6.278;2023-05-02T03:29:13;16.60;87.40
51863;DHT22;37900;52.996;6.278;2023-05-02T03:31:38;16.60;87.40
51863;DHT22;37900;52.996;6.278;2023-05-02T03:34:04;16.60;87.40
51863;DHT22;37900;52.996;6.278;2023-05-02T03:36:29;16.60;87.40
51863;DHT22;37900;52.996;6.278;2023-05-02T03:38:55;16.70;87.40
51863;DHT22;37900;52.996;6.278;2023-05-02T03:41:21;16.60;87.40
51863;DHT22;37900;52.996;6.278;2023-05-02T03:43:47;16.60;87.40
51863;DHT22;37900;52.996;6.278;2023-05-02T03:46:12;16.60;87.90
51863;DHT22;37900;52.996;6.278;2023-05-02T03:48:38;16.60;87.30
51863;DHT22;37900;52.996;6.278;2023-05-02T03:51:04;16.60;87.30
51863;DHT22;37900;52.996;6.278;2023-05-02T03:53:30;16.60;87.20
51863;DHT22;37900;52.996;6.278;2023-05-02T03:55:58;16.60;87.20
51863;DHT22;37900;52.996;6.278;2023-05-02T03:58:24;16.60;87.20
51863;DHT22;37900;52.996;6.278;2023-05-02T04:00:50;16.60;87.20
51863;DHT22;37900;52.996;6.278;2023-05-02T04:03:17;16.60;87.20
51863;DHT22;37900;52.996;6.278;2023-05-02T04:05:43;16.60;87.10
51863;DHT22;37900;52.996;6.278;2023-05-02T04:08:09;16.60;87.10
51863;DHT22;37900;52.996;6.278;2023-05-02T04:10:35;16.60;87.10
51863;DHT22;37900;52.996;6.278;2023-05-02T04:13:01;16.60;87.10
51863;DHT22;37900;52.996;6.278;2023-05-02T04:15:28;16.60;87.10
51863;DHT22;37900;52.996;6.278;2023-05-02T04:17:53;16.60;87.10
51863;DHT22;37900;52.996;6.278;2023-05-02T04:20:19;16.60;87.10
51863;DHT22;37900;52.996;6.278;2023-05-02T04:22:45;16.60;87.00
51863;DHT22;37900;52.996;6.278;2023-05-02T04:25:12;16.60;87.00
51863;DHT22;37900;52.996;6.278;2023-05-02T04:27:38;16.50;86.90
51863;DHT22;37900;52.996;6.278;2023-05-02T04:30:04;16.50;86.90
51863;DHT22;37900;52.996;6.278;2023-05-02T04:32:29;16.50;86.90
51863;DHT22;37900;52.996;6.278;2023-05-02T04:34:55;16.50;86.90
51863;DHT22;37900;52.996;6.278;2023-05-02T04:37:21;16.50;86.80
51863;DHT22;37900;52.996;6.278;2023-05-02T04:39:46;16.50;86.80
51863;DHT22;37900;52.996;6.278;2023-05-02T04:42:12;16.50;86.80
51863;DHT22;37900;52.996;6.278;2023-05-02T04:44:38;16.50;86.80
51863;DHT22;37900;52.996;6.278;2023-05-02T04:47:03;16.50;86.70
51863;DHT22;37900;52.996;6.278;2023-05-02T04:49:29;16.60;86.80
51863;DHT22;37900;52.996;6.278;2023-05-02T04:51:55;16.60;86.70
51863;DHT22;37900;52.996;6.278;2023-05-02T04:54:20;16.50;86.70
51863;DHT22;37900;52.996;6.278;2023-05-02T04:56:46;16.50;86.70
51863;DHT22;37900;52.996;6.278;2023-05-02T04:59:11;16.50;86.60
51863;DHT22;37900;52.996;6.278;2023-05-02T05:01:37;16.50;86.60
51863;DHT22;37900;52.996;6.278;2023-05-02T05:04:03;16.50;86.60
51863;DHT22;37900;52.996;6.278;2023-05-02T05:06:28;16.50;86.60
51863;DHT22;37900;52.996;6.278;2023-05-02T05:08:54;16.50;86.60
51863;DHT22;37900;52.996;6.278;2023-05-02T05:11:19;16.50;86.50
51863;DHT22;37900;52.996;6.278;2023-05-02T05:13:45;16.50;86.50
51863;DHT22;37900;52.996;6.278;2023-05-02T05:16:11;16.50;86.50
51863;DHT22;37900;52.996;6.278;2023-05-02T05:18:36;16.50;86.50
51863;DHT22;37900;52.996;6.278;2023-05-02T05:21:05;16.50;86.50
51863;DHT22;37900;52.996;6.278;2023-05-02T05:23:32;16.50;86.40
51863;DHT22;37900;52.996;6.278;2023-05-02T05:25:57;16.50;86.50
51863;DHT22;37900;52.996;6.278;2023-05-02T05:28:23;16.50;86.50
51863;DHT22;37900;52.996;6.278;2023-05-02T05:30:49;16.50;86.40
51863;DHT22;37900;52.996;6.278;2023-05-02T05:33:16;16.50;86.40
51863;DHT22;37900;52.996;6.278;2023-05-02T05:35:41;16.50;86.30
51863;DHT22;37900;52.996;6.278;2023-05-02T05:38:07;16.50;86.30
51863;DHT22;37900;52.996;6.278;2023-05-02T05:40:33;16.50;86.30
51863;DHT22;37900;52.996;6.278;2023-05-02T05:42:58;16.50;86.30
51863;DHT22;37900;52.996;6.278;2023-05-02T05:45:24;16.50;86.40
51863;DHT22;37900;52.996;6.278;2023-05-02T05:47:49;16.50;86.40
51863;DHT22;37900;52.996;6.278;2023-05-02T05:50:15;16.40;86.50
51863;DHT22;37900;52.996;6.278;2023-05-02T05:52:41;16.50;86.70
51863;DHT22;37900;52.996;6.278;2023-05-02T05:55:07;16.50;86.90
51863;DHT22;37900;52.996;6.278;2023-05-02T05:57:33;16.50;86.90
51863;DHT22;37900;52.996;6.278;2023-05-02T05:59:58;16.50;87.10
51863;DHT22;37900;52.996;6.278;2023-05-02T06:02:24;16.50;87.10
51863;DHT22;37900;52.996;6.278;2023-05-02T06:04:49;16.50;87.10
51863;DHT22;37900;52.996;6.278;2023-05-02T06:07:15;16.50;87.20
51863;DHT22;37900;52.996;6.278;2023-05-02T06:09:41;16.50;87.20
51863;DHT22;37900;52.996;6.278;2023-05-02T06:12:06;16.50;87.10
51863;DHT22;37900;52.996;6.278;2023-05-02T06:14:32;16.50;87.10
51863;DHT22;37900;52.996;6.278;2023-05-02T06:16:58;16.50;87.10
51863;DHT22;37900;52.996;6.278;2023-05-02T06:19:24;16.50;87.30
51863;DHT22;37900;52.996;6.278;2023-05-02T06:21:49;16.50;87.30
51863;DHT22;37900;52.996;6.278;2023-05-02T06:24:15;16.50;87.30
51863;DHT22;37900;52.996;6.278;2023-05-02T06:26:41;16.50;87.30
51863;DHT22;37900;52.996;6.278;2023-05-02T06:29:06;16.50;87.20
51863;DHT22;37900;52.996;6.278;2023-05-02T06:31:32;16.50;87.30
51863;DHT22;37900;52.996;6.278;2023-05-02T06:33:57;16.50;87.30
51863;DHT22;37900;52.996;6.278;2023-05-02T06:36:23;16.50;87.20
51863;DHT22;37900;52.996;6.278;2023-05-02T06:38:48;16.50;87.20
51863;DHT22;37900;52.996;6.278;2023-05-02T06:41:14;16.50;87.20
51863;DHT22;37900;52.996;6.278;2023-05-02T06:43:40;16.50;87.20
51863;DHT22;37900;52.996;6.278;2023-05-02T06:46:06;16.50;87.20
51863;DHT22;37900;52.996;6.278;2023-05-02T06:48:34;16.50;87.20
51863;DHT22;37900;52.996;6.278;2023-05-02T06:50:59;16.50;87.10
51863;DHT22;37900;52.996;6.278;2023-05-02T06:53:25;16.40;87.00
51863;DHT22;37900;52.996;6.278;2023-05-02T06:55:51;16.40;87.00
51863;DHT22;37900;52.996;6.278;2023-05-02T06:58:17;16.40;87.00
51863;DHT22;37900;52.996;6.278;2023-05-02T07:00:43;16.40;86.90
51863;DHT22;37900;52.996;6.278;2023-05-02T07:03:09;16.40;86.90
51863;DHT22;37900;52.996;6.278;2023-05-02T07:05:35;16.40;86.90
51863;DHT22;37900;52.996;6.278;2023-05-02T07:08:01;16.40;86.90
51863;DHT22;37900;52.996;6.278;2023-05-02T07:10:26;16.40;86.90
51863;DHT22;37900;52.996;6.278;2023-05-02T07:12:52;16.40;86.80
51863;DHT22;37900;52.996;6.278;2023-05-02T07:15:18;16.40;86.80
51863;DHT22;37900;52.996;6.278;2023-05-02T07:17:43;16.40;86.80
51863;DHT22;37900;52.996;6.278;2023-05-02T07:20:11;16.40;86.70
51863;DHT22;37900;52.996;6.278;2023-05-02T07:22:37;16.40;87.30
51863;DHT22;37900;52.996;6.278;2023-05-02T07:25:03;16.40;86.70
51863;DHT22;37900;52.996;6.278;2023-05-02T07:27:28;16.40;86.70
51863;DHT22;37900;52.996;6.278;2023-05-02T07:29:54;16.40;86.70
51863;DHT22;37900;52.996;6.278;2023-05-02T07:32:20;16.40;86.70
51863;DHT22;37900;52.996;6.278;2023-05-02T07:34:46;16.40;86.70
51863;DHT22;37900;52.996;6.278;2023-05-02T07:37:12;16.40;86.60
51863;DHT22;37900;52.996;6.278;2023-05-02T07:39:38;16.40;86.60
51863;DHT22;37900;52.996;6.278;2023-05-02T07:42:03;16.40;86.60
51863;DHT22;37900;52.996;6.278;2023-05-02T07:44:31;16.40;86.50
51863;DHT22;37900;52.996;6.278;2023-05-02T07:46:57;16.40;86.50
51863;DHT22;37900;52.996;6.278;2023-05-02T07:49:23;16.40;86.50
51863;DHT22;37900;52.996;6.278;2023-05-02T07:51:48;16.40;86.50
51863;DHT22;37900;52.996;6.278;2023-05-02T07:54:20;16.40;86.50
51863;DHT22;37900;52.996;6.278;2023-05-02T07:56:46;16.40;86.40
51863;DHT22;37900;52.996;6.278;2023-05-02T07:59:13;16.40;86.40
51863;DHT22;37900;52.996;6.278;2023-05-02T08:01:39;16.40;86.40
51863;DHT22;37900;52.996;6.278;2023-05-02T08:04:05;16.40;86.40
51863;DHT22;37900;52.996;6.278;2023-05-02T08:06:31;16.40;86.40
51863;DHT22;37900;52.996;6.278;2023-05-02T08:08:57;16.40;86.40
51863;DHT22;37900;52.996;6.278;2023-05-02T08:11:23;16.30;86.30
51863;DHT22;37900;52.996;6.278;2023-05-02T08:13:50;16.30;86.30
51863;DHT22;37900;52.996;6.278;2023-05-02T08:16:16;16.30;86.30
51863;DHT22;37900;52.996;6.278;2023-05-02T08:18:41;16.30;86.30
51863;DHT22;37900;52.996;6.278;2023-05-02T08:21:07;16.30;86.20
51863;DHT22;37900;52.996;6.278;2023-05-02T08:23:33;16.30;86.20
51863;DHT22;37900;52.996;6.278;2023-05-02T08:25:58;16.40;86.30
51863;DHT22;37900;52.996;6.278;2023-05-02T08:28:24;16.30;86.20
51863;DHT22;37900;52.996;6.278;2023-05-02T08:30:49;16.30;86.20
51863;DHT22;37900;52.996;6.278;2023-05-02T08:33:15;16.30;86.20
51863;DHT22;37900;52.996;6.278;2023-05-02T08:35:41;16.30;86.20
51863;DHT22;37900;52.996;6.278;2023-05-02T08:38:06;16.30;86.20
51863;DHT22;37900;52.996;6.278;2023-05-02T08:40:35;16.30;86.20
51863;DHT22;37900;52.996;6.278;2023-05-02T08:43:02;16.30;86.20
51863;DHT22;37900;52.996;6.278;2023-05-02T08:45:29;16.30;86.10
51863;DHT22;37900;52.996;6.278;2023-05-02T08:47:56;16.30;86.10
51863;DHT22;37900;52.996;6.278;2023-05-02T08:50:22;16.30;86.10
51863;DHT22;37900;52.996;6.278;2023-05-02T08:52:48;16.30;86.10
51863;DHT22;37900;52.996;6.278;2023-05-02T08:55:15;16.30;86.10
51863;DHT22;37900;52.996;6.278;2023-05-02T08:57:40;16.30;86.10
51863;DHT22;37900;52.996;6.278;2023-05-02T09:00:07;16.30;86.10
51863;DHT22;37900;52.996;6.278;2023-05-02T09:02:47;16.30;86.10
51863;DHT22;37900;52.996;6.278;2023-05-02T09:05:15;16.30;86.10
51863;DHT22;37900;52.996;6.278;2023-05-02T09:07:44;16.30;86.10
51863;DHT22;37900;52.996;6.278;2023-05-02T09:10:10;16.30;86.10
51863;DHT22;37900;52.996;6.278;2023-05-02T09:12:36;16.30;86.30
51863;DHT22;37900;52.996;6.278;2023-05-02T09:15:14;16.30;86.00
51863;DHT22;37900;52.996;6.278;2023-05-02T09:17:44;16.30;86.00
51863;DHT22;37900;52.996;6.278;2023-05-02T09:20:13;16.30;86.00
51863;DHT22;37900;52.996;6.278;2023-05-02T09:22:46;16.30;86.00
51863;DHT22;37900;52.996;6.278;2023-05-02T09:25:12;16.30;86.00
51863;DHT22;37900;52.996;6.278;2023-05-02T09:27:48;16.30;86.00
51863;DHT22;37900;52.996;6.278;2023-05-02T09:30:19;16.30;85.90
51863;DHT22;37900;52.996;6.278;2023-05-02T09:32:45;16.30;85.90
51863;DHT22;37900;52.996;6.278;2023-05-02T09:35:11;16.30;85.90
51863;DHT22;37900;52.996;6.278;2023-05-02T09:37:37;16.30;85.90
51863;DHT22;37900;52.996;6.278;2023-05-02T09:40:04;16.30;85.90
51863;DHT22;37900;52.996;6.278;2023-05-02T09:42:30;16.30;85.90
51863;DHT22;37900;52.996;6.278;2023-05-02T09:44:55;16.30;85.90
51863;DHT22;37900;52.996;6.278;2023-05-02T09:47:24;16.30;85.90
51863;DHT22;37900;52.996;6.278;2023-05-02T09:49:53;16.30;85.90
51863;DHT22;37900;52.996;6.278;2023-05-02T09:52:19;16.30;85.80
51863;DHT22;37900;52.996;6.278;2023-05-02T09:54:47;16.30;85.90
51863;DHT22;37900;52.996;6.278;2023-05-02T09:57:17;16.30;85.80
51863;DHT22;37900;52.996;6.278;2023-05-02T09:59:52;16.30;85.90
51863;DHT22;37900;52.996;6.278;2023-05-02T10:02:18;16.30;85.90
51863;DHT22;37900;52.996;6.278;2023-05-02T10:04:46;16.30;85.90
51863;DHT22;37900;52.996;6.278;2023-05-02T10:07:12;16.30;85.90
51863;DHT22;37900;52.996;6.278;2023-05-02T10:09:41;16.30;85.90
51863;DHT22;37900;52.996;6.278;2023-05-02T10:12:07;16.30;86.00
51863;DHT22;37900;52.996;6.278;2023-05-02T10:14:38;16.30;85.90
51863;DHT22;37900;52.996;6.278;2023-05-02T10:17:04;16.30;85.90
51863;DHT22;37900;52.996;6.278;2023-05-02T10:19:38;16.30;85.90
51863;DHT22;37900;52.996;6.278;2023-05-02T10:22:05;16.30;85.90
51863;DHT22;37900;52.996;6.278;2023-05-02T10:24:31;16.30;85.90
51863;DHT22;37900;52.996;6.278;2023-05-02T10:26:57;16.30;85.90
51863;DHT22;37900;52.996;6.278;2023-05-02T10:29:24;16.30;85.90
51863;DHT22;37900;52.996;6.278;2023-05-02T10:31:51;16.30;86.00
51863;DHT22;37900;52.996;6.278;2023-05-02T10:34:17;16.30;86.00
51863;DHT22;37900;52.996;6.278;2023-05-02T10:36:43;16.30;86.00
51863;DHT22;37900;52.996;6.278;2023-05-02T10:39:08;16.30;86.10
51863;DHT22;37900;52.996;6.278;2023-05-02T10:41:34;16.30;86.20
51863;DHT22;37900;52.996;6.278;2023-05-02T10:44:00;16.30;86.40
51863;DHT22;37900;52.996;6.278;2023-05-02T10:46:32;16.40;86.50
51863;DHT22;37900;52.996;6.278;2023-05-02T10:49:05;16.40;86.50
51863;DHT22;37900;52.996;6.278;2023-05-02T10:51:31;16.40;86.40
51863;DHT22;37900;52.996;6.278;2023-05-02T11:02:00;16.40;86.20
51863;DHT22;37900;52.996;6.278;2023-05-02T11:04:57;16.40;86.20
51863;DHT22;37900;52.996;6.278;2023-05-02T11:07:17;16.40;86.20
51863;DHT22;37900;52.996;6.278;2023-05-02T11:09:43;16.40;86.20
51863;DHT22;37900;52.996;6.278;2023-05-02T11:12:08;16.40;86.20
51863;DHT22;37900;52.996;6.278;2023-05-02T11:19:29;16.40;86.20
51863;DHT22;37900;52.996;6.278;2023-05-02T11:24:40;16.40;86.10
51863;DHT22;37900;52.996;6.278;2023-05-02T11:29:57;16.40;86.20
51863;DHT22;37900;52.996;6.278;2023-05-02T11:32:24;16.40;86.30
51863;DHT22;37900;52.996;6.278;2023-05-02T11:34:49;16.50;86.50
51863;DHT22;37900;52.996;6.278;2023-05-02T11:37:18;16.50;86.50
51863;DHT22;37900;52.996;6.278;2023-05-02T11:39:44;16.50;86.40
51863;DHT22;37900;52.996;6.278;2023-05-02T11:42:32;16.50;86.30
51863;DHT22;37900;52.996;6.278;2023-05-02T11:44:58;16.50;86.30
51863;DHT22;37900;52.996;6.278;2023-05-02T11:47:25;16.50;86.20
51863;DHT22;37900;52.996;6.278;2023-05-02T11:49:53;16.50;86.30
51863;DHT22;37900;52.996;6.278;2023-05-02T11:52:19;16.50;86.20
51863;DHT22;37900;52.996;6.278;2023-05-02T11:54:45;16.50;86.20
51863;DHT22;37900;52.996;6.278;2023-05-02T11:57:11;16.50;86.20
51863;DHT22;37900;52.996;6.278;2023-05-02T11:59:53;16.50;86.20
51863;DHT22;37900;52.996;6.278;2023-05-02T12:02:19;16.50;86.20
51863;DHT22;37900;52.996;6.278;2023-05-02T12:04:45;16.50;86.20
51863;DHT22;37900;52.996;6.278;2023-05-02T12:07:11;16.50;86.20
51863;DHT22;37900;52.996;6.278;2023-05-02T12:09:58;16.50;86.20
51863;DHT22;37900;52.996;6.278;2023-05-02T12:12:22;16.50;86.20
51863;DHT22;37900;52.996;6.278;2023-05-02T12:14:48;16.50;86.20
51863;DHT22;37900;52.996;6.278;2023-05-02T12:17:15;16.50;86.20
51863;DHT22;37900;52.996;6.278;2023-05-02T12:19:41;16.50;86.10
51863;DHT22;37900;52.996;6.278;2023-05-02T12:22:06;16.50;86.30
51863;DHT22;37900;52.996;6.278;2023-05-02T12:24:32;16.50;86.40
51863;DHT22;37900;52.996;6.278;2023-05-02T12:29:53;16.50;86.40
51863;DHT22;37900;52.996;6.278;2023-05-02T12:32:26;16.60;86.40
51863;DHT22;37900;52.996;6.278;2023-05-02T12:34:53;16.50;86.30
51863;DHT22;37900;52.996;6.278;2023-05-02T12:37:22;16.50;86.30
51863;DHT22;37900;52.996;6.278;2023-05-02T12:39:48;16.50;86.20
51863;DHT22;37900;52.996;6.278;2023-05-02T12:42:15;16.50;86.20
51863;DHT22;37900;52.996;6.278;2023-05-02T12:44:41;16.50;86.10
51863;DHT22;37900;52.996;6.278;2023-05-02T12:47:08;16.50;86.20
51863;DHT22;37900;52.996;6.278;2023-05-02T12:52:16;16.50;86.20
51863;DHT22;37900;52.996;6.278;2023-05-02T12:54:41;16.50;86.20
51863;DHT22;37900;52.996;6.278;2023-05-02T12:57:07;16.50;86.10
51863;DHT22;37900;52.996;6.278;2023-05-02T12:59:33;16.50;86.10
51863;DHT22;37900;52.996;6.278;2023-05-02T13:01:58;16.50;86.10
51863;DHT22;37900;52.996;6.278;2023-05-02T13:04:34;16.50;86.10
51863;DHT22;37900;52.996;6.278;2023-05-02T13:07:00;16.50;86.10
51863;DHT22;37900;52.996;6.278;2023-05-02T13:09:26;16.50;86.10
51863;DHT22;37900;52.996;6.278;2023-05-02T13:11:51;16.50;86.10
51863;DHT22;37900;52.996;6.278;2023-05-02T13:14:18;16.50;86.10
51863;DHT22;37900;52.996;6.278;2023-05-02T13:16:44;16.50;86.20
51863;DHT22;37900;52.996;6.278;2023-05-02T13:19:10;16.50;86.10
51863;DHT22;37900;52.996;6.278;2023-05-02T13:21:35;16.50;86.40
51863;DHT22;37900;52.996;6.278;2023-05-02T13:24:01;16.50;86.70
51863;DHT22;37900;52.996;6.278;2023-05-02T13:26:28;16.50;86.90
51863;DHT22;37900;52.996;6.278;2023-05-02T13:28:54;16.60;87.20
51863;DHT22;37900;52.996;6.278;2023-05-02T13:31:20;16.60;87.30
51863;DHT22;37900;52.996;6.278;2023-05-02T13:33:46;16.70;87.10
51863;DHT22;37900;52.996;6.278;2023-05-02T13:36:11;16.70;86.70
51863;DHT22;37900;52.996;6.278;2023-05-02T13:38:37;16.70;86.50
51863;DHT22;37900;52.996;6.278;2023-05-02T13:41:03;16.70;86.40
51863;DHT22;37900;52.996;6.278;2023-05-02T13:43:28;16.70;86.30
51863;DHT22;37900;52.996;6.278;2023-05-02T13:45:54;16.70;86.20
51863;DHT22;37900;52.996;6.278;2023-05-02T13:48:20;16.70;86.20
51863;DHT22;37900;52.996;6.278;2023-05-02T13:50:45;16.60;86.10
51863;DHT22;37900;52.996;6.278;2023-05-02T13:53:11;16.60;86.20
51863;DHT22;37900;52.996;6.278;2023-05-02T13:55:36;16.60;86.20
51863;DHT22;37900;52.996;6.278;2023-05-02T13:58:02;16.60;86.20
51863;DHT22;37900;52.996;6.278;2023-05-02T14:00:28;16.70;86.30
51863;DHT22;37900;52.996;6.278;2023-05-02T14:02:53;16.60;86.20
51863;DHT22;37900;52.996;6.278;2023-05-02T14:05:19;16.60;86.30
51863;DHT22;37900;52.996;6.278;2023-05-02T14:07:45;16.60;86.30
51863;DHT22;37900;52.996;6.278;2023-05-02T14:10:11;16.60;86.30
51863;DHT22;37900;52.996;6.278;2023-05-02T14:12:36;16.60;86.30
51863;DHT22;37900;52.996;6.278;2023-05-02T14:15:02;16.60;86.40
51863;DHT22;37900;52.996;6.278;2023-05-02T14:17:28;16.60;86.40
51863;DHT22;37900;52.996;6.278;2023-05-02T14:19:53;16.60;86.50
51863;DHT22;37900;52.996;6.278;2023-05-02T14:22:19;16.60;86.50
51863;DHT22;37900;52.996;6.278;2023-05-02T14:24:45;16.60;86.60
51863;DHT22;37900;52.996;6.278;2023-05-02T14:27:10;16.60;86.60
51863;DHT22;37900;52.996;6.278;2023-05-02T14:29:45;16.60;86.60
51863;DHT22;37900;52.996;6.278;2023-05-02T14:32:11;16.60;86.60
51863;DHT22;37900;52.996;6.278;2023-05-02T14:34:36;16.50;86.50
51863;DHT22;37900;52.996;6.278;2023-05-02T14:37:02;16.60;86.70
51863;DHT22;37900;52.996;6.278;2023-05-02T14:39:28;16.60;86.70
51863;DHT22;37900;52.996;6.278;2023-05-02T14:41:53;16.60;86.70
51863;DHT22;37900;52.996;6.278;2023-05-02T14:44:19;16.60;86.60
51863;DHT22;37900;52.996;6.278;2023-05-02T14:46:44;16.60;86.40
51863;DHT22;37900;52.996;6.278;2023-05-02T14:49:10;16.70;86.40
51863;DHT22;37900;52.996;6.278;2023-05-02T14:51:39;16.70;86.30
51863;DHT22;37900;52.996;6.278;2023-05-02T14:54:05;16.70;86.30
51863;DHT22;37900;52.996;6.278;2023-05-02T14:56:31;16.60;86.70
51863;DHT22;37900;52.996;6.278;2023-05-02T14:58:57;16.60;86.10
51863;DHT22;37900;52.996;6.278;2023-05-02T15:01:23;16.60;86.10
51863;DHT22;37900;52.996;6.278;2023-05-02T15:03:48;16.60;86.00
51863;DHT22;37900;52.996;6.278;2023-05-02T15:06:15;16.70;86.00
51863;DHT22;37900;52.996;6.278;2023-05-02T15:08:41;16.60;85.90
51863;DHT22;37900;52.996;6.278;2023-05-02T15:11:10;16.60;85.90
51863;DHT22;37900;52.996;6.278;2023-05-02T15:13:36;16.60;85.80
51863;DHT22;37900;52.996;6.278;2023-05-02T15:16:02;16.60;85.80
51863;DHT22;37900;52.996;6.278;2023-05-02T15:18:27;16.60;85.70
51863;DHT22;37900;52.996;6.278;2023-05-02T15:20:53;16.60;85.60
51863;DHT22;37900;52.996;6.278;2023-05-02T15:23:19;16.60;85.60
51863;DHT22;37900;52.996;6.278;2023-05-02T15:25:44;16.60;85.60
51863;DHT22;37900;52.996;6.278;2023-05-02T15:28:10;16.60;85.50
51863;DHT22;37900;52.996;6.278;2023-05-02T15:30:35;16.60;85.60
51863;DHT22;37900;52.996;6.278;2023-05-02T15:33:01;16.60;85.50
51863;DHT22;37900;52.996;6.278;2023-05-02T15:35:27;16.60;85.60
51863;DHT22;37900;52.996;6.278;2023-05-02T15:37:53;16.60;85.50
51863;DHT22;37900;52.996;6.278;2023-05-02T15:40:19;16.60;85.40
51863;DHT22;37900;52.996;6.278;2023-05-02T15:42:45;16.60;85.40
51863;DHT22;37900;52.996;6.278;2023-05-02T15:45:10;16.50;85.30
51863;DHT22;37900;52.996;6.278;2023-05-02T15:47:38;16.60;85.00
51863;DHT22;37900;52.996;6.278;2023-05-02T15:50:04;16.60;84.90
51863;DHT22;37900;52.996;6.278;2023-05-02T15:52:30;16.60;84.80
51863;DHT22;37900;52.996;6.278;2023-05-02T15:54:55;16.60;84.80
51863;DHT22;37900;52.996;6.278;2023-05-02T15:57:21;16.60;84.80
51863;DHT22;37900;52.996;6.278;2023-05-02T15:59:47;16.60;84.80
51863;DHT22;37900;52.996;6.278;2023-05-02T16:02:12;16.60;84.80
51863;DHT22;37900;52.996;6.278;2023-05-02T16:04:38;16.60;84.70
51863;DHT22;37900;52.996;6.278;2023-05-02T16:07:04;16.60;84.70
51863;DHT22;37900;52.996;6.278;2023-05-02T16:09:29;16.60;84.60
51863;DHT22;37900;52.996;6.278;2023-05-02T16:11:55;16.60;84.70